createdAt,value
2022-08-22T00:02:19.879Z,3.70
2022-08-22T00:02:48.149Z,1.95
2022-08-22T00:07:31.044Z,3.70
2022-08-22T00:12:38.218Z,3.95
2022-08-22T00:17:48.806Z,4.10
2022-08-22T00:22:56.588Z,3.80
2022-08-22T00:28:03.193Z,4.07
2022-08-22T00:33:16.072Z,3.88
2022-08-22T00:38:28.304Z,4.25
2022-08-22T00:44:08.264Z,3.83
2022-08-22T00:49:19.199Z,4.15
2022-08-22T00:54:30.476Z,4.00
2022-08-22T00:59:50.287Z,4.25
2022-08-22T01:05:04.853Z,3.78
2022-08-22T01:10:23.831Z,4.15
2022-08-22T01:15:29.569Z,4.63
2022-08-22T01:21:03.522Z,3.97
2022-08-22T01:26:48.638Z,4.45
2022-08-22T01:32:10.780Z,4.20
2022-08-22T01:37:52.877Z,4.47
2022-08-22T01:43:07.268Z,4.70
2022-08-22T01:48:15.047Z,4.25
2022-08-22T01:53:24.210Z,4.60
2022-08-22T01:58:31.400Z,4.85
2022-08-22T02:03:38.442Z,4.78
2022-08-22T02:08:45.709Z,4.50
2022-08-22T02:13:55.697Z,4.65
2022-08-22T02:19:06.696Z,4.97
2022-08-22T02:24:19.460Z,4.60
2022-08-22T02:29:30.998Z,4.75
2022-08-22T02:34:39.544Z,4.72
2022-08-22T02:39:47.470Z,5.07
2022-08-22T02:44:58.562Z,5.18
2022-08-22T02:50:12.633Z,5.07
2022-08-22T02:55:21.273Z,4.82
2022-08-22T03:00:32.598Z,5.10
2022-08-22T03:05:49.674Z,5.10
2022-08-22T03:11:02.876Z,4.72
2022-08-22T03:16:11.852Z,6.00
2022-08-22T03:21:19.029Z,6.15
2022-08-22T03:26:27.777Z,5.10
2022-08-22T03:31:32.761Z,5.55
2022-08-22T03:36:36.047Z,5.70
2022-08-22T03:41:59.365Z,5.43
2022-08-22T03:47:31.085Z,5.35
2022-08-22T03:53:18.837Z,6.53
2022-08-22T03:58:52.096Z,5.90
2022-08-22T04:04:20.131Z,6.05
2022-08-22T04:09:35.738Z,5.78
2022-08-22T04:15:08.879Z,6.65
2022-08-22T04:20:45.264Z,5.53
2022-08-22T04:25:52.859Z,6.10
2022-08-22T04:31:00.029Z,6.53
2022-08-22T04:36:06.569Z,6.65
2022-08-22T04:41:15.110Z,6.30
2022-08-22T04:46:22.992Z,6.78
2022-08-22T04:51:30.731Z,6.95
2022-08-22T04:56:40.501Z,6.15
2022-08-22T05:01:46.647Z,6.22
2022-08-22T05:06:53.850Z,6.43
2022-08-22T05:12:01.580Z,6.70
2022-08-22T05:17:07.414Z,6.47
2022-08-22T05:22:15.785Z,6.15
2022-08-22T05:27:22.645Z,6.88
2022-08-22T05:32:27.432Z,6.25
2022-08-22T05:37:38.324Z,6.18
2022-08-22T05:42:42.675Z,5.88
2022-08-22T05:47:52.127Z,6.10
2022-08-22T05:53:03.624Z,5.88
2022-08-22T05:58:17.747Z,5.43
2022-08-22T06:03:26.834Z,5.55
2022-08-22T06:08:34.313Z,4.90
2022-08-22T06:13:41.519Z,4.75
2022-08-22T06:18:45.693Z,4.53
2022-08-22T06:23:51.946Z,4.53
2022-08-22T06:28:58.811Z,3.83
2022-08-22T06:34:05.670Z,3.72
2022-08-22T06:39:12.679Z,4.22
2022-08-22T06:44:19.901Z,3.72
2022-08-22T06:49:23.411Z,3.50
2022-08-22T06:54:33.793Z,3.42
2022-08-22T06:59:39.247Z,3.53
2022-08-22T07:04:41.955Z,3.75
2022-08-22T07:09:44.878Z,3.50
2022-08-22T07:14:51.370Z,3.40
2022-08-22T07:19:59.319Z,2.75
2022-08-22T07:25:07.234Z,2.92
2022-08-22T07:30:13.990Z,2.38
2022-08-22T07:35:19.198Z,2.47
2022-08-22T07:40:27.097Z,2.20
2022-08-22T07:45:37.709Z,2.40
2022-08-22T07:50:47.279Z,2.10
2022-08-22T07:55:50.082Z,2.10
2022-08-22T08:00:54.610Z,2.10
2022-08-22T08:05:57.451Z,1.83
2022-08-22T08:11:01.252Z,1.83
2022-08-22T08:16:07.733Z,2.20
2022-08-22T08:21:18.150Z,2.00
2022-08-22T08:26:22.837Z,2.00
2022-08-22T08:31:28.960Z,1.90
2022-08-22T08:36:37.778Z,2.08
2022-08-22T08:42:14.051Z,1.88
2022-08-22T08:47:52.618Z,1.85
2022-08-22T08:53:07.726Z,1.90
2022-08-22T08:58:22.754Z,2.10
2022-08-22T09:04:15.333Z,1.90
2022-08-22T09:09:29.586Z,1.80
2022-08-22T09:15:05.542Z,2.10
2022-08-22T09:20:30.875Z,1.90
2022-08-22T09:25:39.940Z,1.70
2022-08-22T09:30:59.499Z,2.20
2022-08-22T09:36:06.283Z,2.15
2022-08-22T09:41:27.055Z,1.98
2022-08-22T09:46:36.852Z,2.22
2022-08-22T09:51:45.236Z,1.83
2022-08-22T09:56:58.335Z,2.20
2022-08-22T10:02:07.088Z,1.98
2022-08-22T10:07:59.021Z,1.95
2022-08-22T10:13:10.514Z,2.03
2022-08-22T10:18:21.665Z,2.05
2022-08-22T10:23:27.596Z,2.15
2022-08-22T10:28:37.773Z,2.08
2022-08-22T10:33:44.407Z,2.15
2022-08-22T10:38:49.454Z,2.40
2022-08-22T10:44:04.423Z,2.20
2022-08-22T10:49:10.150Z,2.30
2022-08-22T10:54:29.120Z,2.20
2022-08-22T10:59:39.364Z,2.63
2022-08-22T11:04:56.680Z,2.60
2022-08-22T11:10:04.708Z,2.60
2022-08-22T11:15:27.294Z,2.50
2022-08-22T11:20:48.394Z,2.65
2022-08-22T11:25:55.277Z,2.53
2022-08-22T11:31:12.281Z,2.65
2022-08-22T11:36:30.957Z,2.60
2022-08-22T11:41:39.970Z,2.42
2022-08-22T11:46:46.063Z,2.55
2022-08-22T11:52:11.475Z,2.67
2022-08-22T11:57:18.154Z,2.67
2022-08-22T12:02:27.311Z,2.58
2022-08-22T12:07:38.133Z,2.42
2022-08-22T12:12:55.260Z,2.65
2022-08-22T12:18:22.771Z,2.90
2022-08-22T12:23:48.769Z,2.72
2022-08-22T12:29:05.116Z,3.13
2022-08-22T12:34:23.479Z,3.15
2022-08-22T12:40:12.204Z,2.95
2022-08-22T12:45:26.854Z,2.97
2022-08-22T12:50:39.427Z,3.30
2022-08-22T12:55:54.946Z,3.25
2022-08-22T13:01:00.756Z,3.58
2022-08-22T13:06:13.757Z,3.60
2022-08-22T13:11:23.016Z,3.72
2022-08-22T13:16:36.395Z,3.67
2022-08-22T13:21:44.979Z,3.58
2022-08-22T13:26:50.479Z,3.50
2022-08-22T13:31:56.152Z,3.25
2022-08-22T13:37:01.943Z,3.15
2022-08-22T13:42:14.404Z,3.15
2022-08-22T13:47:25.474Z,3.10
2022-08-22T13:52:31.756Z,3.17
2022-08-22T13:57:37.971Z,3.00
2022-08-22T14:02:49.605Z,3.10
2022-08-22T14:08:01.429Z,2.78
2022-08-22T14:13:46.008Z,3.00
2022-08-22T14:18:53.639Z,2.97
2022-08-22T14:24:00.682Z,3.25
2022-08-22T14:29:07.069Z,3.00
2022-08-22T14:34:12.813Z,3.05
2022-08-22T14:39:24.305Z,2.90
2022-08-22T14:44:30.529Z,2.90
2022-08-22T14:49:38.228Z,2.85
2022-08-22T14:54:42.663Z,2.78
2022-08-22T14:59:50.084Z,2.80
2022-08-22T15:04:54.954Z,2.55
2022-08-22T15:10:03.166Z,2.90
2022-08-22T15:15:10.270Z,3.08
2022-08-22T15:20:26.053Z,2.95
2022-08-22T15:25:35.433Z,2.88
2022-08-22T15:30:44.384Z,2.80
2022-08-22T15:35:48.177Z,2.70
2022-08-22T15:40:52.796Z,2.45
2022-08-22T15:46:15.630Z,2.53
2022-08-22T15:51:35.474Z,2.70
2022-08-22T15:56:42.758Z,2.85
2022-08-22T16:01:52.336Z,3.58
2022-08-22T16:06:58.008Z,3.03
2022-08-22T16:12:04.481Z,2.65
2022-08-22T16:17:28.583Z,2.60
2022-08-22T16:23:03.686Z,2.97
2022-08-22T16:28:31.667Z,2.75
2022-08-22T16:33:44.258Z,3.00
2022-08-22T16:38:48.800Z,2.38
2022-08-22T16:44:24.175Z,2.70
2022-08-22T16:49:29.428Z,2.50
2022-08-22T16:54:45.162Z,2.63
2022-08-22T17:00:11.157Z,2.50
2022-08-22T17:05:30.009Z,2.65
2022-08-22T17:10:43.282Z,2.65
2022-08-22T17:15:57.831Z,2.70
2022-08-22T17:21:06.293Z,2.70
2022-08-22T17:26:21.010Z,3.03
2022-08-22T17:31:30.730Z,3.08
2022-08-22T17:36:42.497Z,2.90
2022-08-22T17:41:50.826Z,2.90
2022-08-22T17:46:56.665Z,3.17
2022-08-22T17:52:01.713Z,3.08
2022-08-22T17:57:09.733Z,3.25
2022-08-22T18:02:18.770Z,3.30
2022-08-22T18:07:35.485Z,3.25
2022-08-22T18:12:42.902Z,3.35
2022-08-22T18:17:51.086Z,3.40
2022-08-22T18:22:56.830Z,3.70
2022-08-22T18:28:03.385Z,3.80
2022-08-22T18:33:12.297Z,3.78
2022-08-22T18:38:22.339Z,3.83
2022-08-22T18:43:36.906Z,3.70
2022-08-22T18:49:05.453Z,4.13
2022-08-22T18:54:34.254Z,3.70
2022-08-22T18:59:49.329Z,3.42
2022-08-22T19:05:16.071Z,3.88
2022-08-22T19:10:36.973Z,4.03
2022-08-22T19:15:45.545Z,3.65
2022-08-22T19:21:35.282Z,3.80
2022-08-22T19:26:44.803Z,3.78
2022-08-22T19:31:51.679Z,3.65
2022-08-22T19:37:32.134Z,3.67
2022-08-22T19:42:39.441Z,3.50
2022-08-22T19:47:43.752Z,4.50
2022-08-22T19:53:08.555Z,4.35
2022-08-22T19:58:17.271Z,3.92
2022-08-22T20:03:32.934Z,3.28
2022-08-22T20:08:49.491Z,3.80
